Time;durP1;ratioP1;P1;durP2;ratioP2;P2;SDS_P1;SDS_P2;PMS_P1;PMS_P2;Temp;Humidity;BMP_temperature;BMP_pressure;BME280_temperature;BME280_humidity;BME280_pressure;Samples;Min_cycle;Max_cycle;Signal;HPM_P1;HPM_P2
2021/10/30 00:04:51;;;;;;;44.07;40.80;;;;;;;10.42;100.00;99983.36;1941053;74;33098;-70
2021/10/30 00:10:17;;;;;;;43.90;40.67;;;;;;;10.62;100.00;99997.98;1941033;74;33136;-70
2021/10/30 00:15:44;;;;;;;45.80;42.60;;;;;;;11.22;100.00;99983.44;1941029;74;32992;-69
2021/10/30 00:21:08;;;;;;;46.23;42.77;;;;;;;11.13;100.00;99966.67;1941310;74;33007;-70
2021/10/30 00:26:50;;;;;;;46.90;43.40;;;;;;;11.03;100.00;99967.47;2009806;71;32967;-72
2021/10/30 00:32:15;;;;;;;47.80;44.30;;;;;;;10.97;100.00;99955.63;1941048;74;32979;-73
2021/10/30 00:37:39;;;;;;;46.97;43.37;;;;;;;10.95;100.00;99942.63;1941269;74;33551;-74
2021/10/30 00:43:04;;;;;;;48.20;44.70;;;;;;;10.88;100.00;99936.64;1940924;74;33128;-70
2021/10/30 00:48:29;;;;;;;44.83;41.63;;;;;;;10.82;100.00;99946.23;1940959;74;33136;-73
2021/10/30 00:53:55;;;;;;;46.60;42.87;;;;;;;10.82;100.00;99947.05;1940934;74;33000;-73
2021/10/30 00:59:21;;;;;;;45.33;41.90;;;;;;;10.95;100.00;99943.42;1941041;74;33557;-71
2021/10/30 01:04:47;;;;;;;45.73;42.40;;;;;;;11.05;100.00;99942.39;1941103;74;33583;-70
2021/10/30 01:10:12;;;;;;;45.00;41.73;;;;;;;10.97;100.00;99923.67;1940842;74;33059;-70
2021/10/30 01:15:37;;;;;;;44.33;41.17;;;;;;;10.91;100.00;99904.89;1941144;74;33509;-74
2021/10/30 01:21:02;;;;;;;46.00;42.50;;;;;;;10.92;100.00;99882.09;1941089;74;33571;-74
2021/10/30 01:26:26;;;;;;;46.87;43.37;;;;;;;11.01;100.00;99885.79;1940898;74;33014;-74
2021/10/30 01:31:51;;;;;;;47.43;44.00;;;;;;;10.99;100.00;99863.63;1940941;74;32987;-70
2021/10/30 01:37:16;;;;;;;46.60;43.70;;;;;;;10.82;100.00;99862.33;1941061;74;33079;-70
2021/10/30 01:42:40;;;;;;;45.40;42.10;;;;;;;10.87;100.00;99871.09;1941044;74;33567;-70
2021/10/30 01:48:06;;;;;;;47.50;44.10;;;;;;;10.81;100.00;99868.19;1941128;74;33531;-73
2021/10/30 01:53:31;;;;;;;46.07;43.03;;;;;;;10.83;100.00;99861.17;1941154;74;33483;-70
2021/10/30 01:58:55;;;;;;;46.70;43.43;;;;;;;10.92;100.00;99857.09;1940890;74;33040;-73
2021/10/30 02:04:19;;;;;;;45.07;42.07;;;;;;;10.88;100.00;99841.63;1940974;74;33075;-73
2021/10/30 02:09:45;;;;;;;45.07;42.10;;;;;;;10.83;100.00;99830.62;1941183;74;33094;-72
2021/10/30 02:15:10;;;;;;;46.50;43.30;;;;;;;10.84;100.00;99828.66;1940995;74;33222;-73
2021/10/30 02:20:35;;;;;;;47.43;44.20;;;;;;;10.90;100.00;99795.48;1941196;74;32990;-73
2021/10/30 02:26:03;;;;;;;46.33;43.07;;;;;;;10.88;100.00;99798.56;1940847;74;33076;-73
2021/10/30 02:31:27;;;;;;;48.07;44.43;;;;;;;10.79;100.00;99796.27;1940981;74;32998;-71
2021/10/30 02:36:51;;;;;;;45.77;42.63;;;;;;;10.80;100.00;99784.59;1941067;74;33478;-74
2021/10/30 02:42:15;;;;;;;46.17;43.03;;;;;;;10.61;100.00;99765.28;1940848;74;33077;-73
2021/10/30 02:47:39;;;;;;;46.27;42.87;;;;;;;10.62;100.00;99744.73;1941117;74;33586;-71
2021/10/30 02:53:04;;;;;;;44.90;41.70;;;;;;;10.63;100.00;99725.55;1940831;74;33092;-74
2021/10/30 02:58:28;;;;;;;44.17;41.33;;;;;;;10.64;100.00;99710.53;1940831;74;33007;-74
2021/10/30 03:03:53;;;;;;;44.37;41.50;;;;;;;10.63;100.00;99696.95;1941064;74;33533;-70
2021/10/30 03:09:17;;;;;;;44.20;41.37;;;;;;;10.65;100.00;99687.19;1941097;74;33505;-73
2021/10/30 03:14:41;;;;;;;44.07;41.37;;;;;;;10.64;100.00;99674.44;1941035;74;33692;-73
2021/10/30 03:20:07;;;;;;;46.00;43.00;;;;;;;10.79;100.00;99676.00;1940876;74;33091;-70
2021/10/30 03:25:34;;;;;;;43.87;40.77;;;;;;;10.72;100.00;99667.30;1941060;74;33087;-72
2021/10/30 03:30:58;;;;;;;42.10;39.00;;;;;;;10.59;100.00;99662.62;1941007;74;33076;-71
2021/10/30 03:36:23;;;;;;;43.77;40.53;;;;;;;10.57;100.00;99651.03;1941081;74;33003;-70
2021/10/30 03:41:48;;;;;;;42.83;39.57;;;;;;;10.46;100.00;99644.88;1941077;74;33576;-73
2021/10/30 03:47:18;;;;;;;42.03;39.03;;;;;;;10.48;100.00;99634.30;1940908;74;33069;-74
2021/10/30 03:52:42;;;;;;;42.50;39.47;;;;;;;10.44;100.00;99636.03;1940871;74;33112;-70
2021/10/30 03:58:07;;;;;;;40.97;37.93;;;;;;;10.38;100.00;99627.59;1941022;74;33052;-70
2021/10/30 04:03:31;;;;;;;41.03;38.00;;;;;;;10.55;100.00;99630.51;1940951;74;33045;-73
2021/10/30 04:08:56;;;;;;;42.70;38.90;;;;;;;10.67;100.00;99624.38;1941081;74;33074;-73
2021/10/30 04:14:21;;;;;;;41.90;38.70;;;;;;;10.53;100.00;99602.22;1941093;74;33612;-73
2021/10/30 04:19:45;;;;;;;42.30;39.10;;;;;;;10.44;100.00;99602.16;1940905;74;32997;-74
2021/10/30 04:25:11;;;;;;;42.73;39.40;;;;;;;10.63;100.00;99613.66;1940933;74;33089;-73
2021/10/30 04:30:35;;;;;;;42.40;38.97;;;;;;;10.93;100.00;99605.93;1941152;74;33599;-70
2021/10/30 04:36:02;;;;;;;43.20;39.70;;;;;;;10.78;100.00;99596.63;1940883;74;33040;-71
2021/10/30 04:41:27;;;;;;;42.87;39.83;;;;;;;10.77;100.00;99576.92;1941049;74;33490;-70
2021/10/30 04:46:51;;;;;;;41.40;38.23;;;;;;;10.83;100.00;99563.13;1941066;74;33712;-72
2021/10/30 04:52:16;;;;;;;41.30;38.40;;;;;;;10.78;100.00;99554.36;1940902;74;33116;-69
2021/10/30 04:57:41;;;;;;;40.93;37.60;;;;;;;10.85;100.00;99553.93;1940873;74;33169;-70
2021/10/30 05:03:07;;;;;;;42.63;39.27;;;;;;;10.98;100.00;99546.07;1940892;74;33092;-70
2021/10/30 05:08:31;;;;;;;43.77;40.50;;;;;;;10.98;100.00;99542.47;1940868;74;33085;-74
2021/10/30 05:13:55;;;;;;;43.00;39.80;;;;;;;10.95;100.00;99541.95;1940921;74;33008;-74
2021/10/30 05:19:19;;;;;;;42.27;39.47;;;;;;;11.02;100.00;99534.56;1940983;74;33092;-74
2021/10/30 05:24:44;;;;;;;42.33;39.23;;;;;;;11.03;100.00;99538.99;1941048;74;33493;-74
2021/10/30 05:30:10;;;;;;;45.33;41.80;;;;;;;11.34;100.00;99524.45;1941138;74;33484;-70
2021/10/30 05:35:34;;;;;;;47.63;43.47;;;;;;;11.63;100.00;99509.16;1941090;74;33533;-70
2021/10/30 05:40:58;;;;;;;47.53;43.33;;;;;;;11.84;100.00;99493.51;1940994;74;33014;-71
2021/10/30 05:46:23;;;;;;;48.23;44.37;;;;;;;11.91;100.00;99477.13;1940893;74;33051;-74
2021/10/30 05:51:47;;;;;;;47.77;43.83;;;;;;;11.88;100.00;99473.63;1940849;74;32994;-71
2021/10/30 05:57:13;;;;;;;48.90;45.10;;;;;;;11.94;100.00;99458.98;1940932;74;33034;-74
2021/10/30 06:02:37;;;;;;;47.70;43.90;;;;;;;12.04;100.00;99451.10;1941000;74;33138;-73
2021/10/30 06:08:07;;;;;;;47.17;43.10;;;;;;;12.16;100.00;99449.86;1940917;74;33126;-71
2021/10/30 06:13:32;;;;;;;48.33;44.73;;;;;;;12.27;100.00;99439.20;1940964;74;33103;-71
2021/10/30 06:18:56;;;;;;;48.20;44.03;;;;;;;12.39;100.00;99431.55;1940989;74;33064;-71
2021/10/30 06:24:20;;;;;;;49.53;45.57;;;;;;;12.35;100.00;99430.02;1940766;74;33095;-74
2021/10/30 06:29:45;;;;;;;46.13;42.17;;;;;;;12.39;100.00;99424.59;1940974;74;33540;-74
2021/10/30 06:35:10;;;;;;;45.33;42.07;;;;;;;12.36;100.00;99418.30;1940844;74;33000;-74
2021/10/30 06:40:36;;;;;;;44.53;41.30;;;;;;;12.36;100.00;99414.13;1940950;74;33037;-72
2021/10/30 06:46:00;;;;;;;45.90;42.47;;;;;;;12.35;100.00;99414.70;1940840;74;33053;-71
2021/10/30 06:51:28;;;;;;;45.27;41.67;;;;;;;12.41;100.00;99412.56;1940797;74;33087;-71
2021/10/30 06:56:52;;;;;;;44.67;41.20;;;;;;;12.49;100.00;99416.72;1940818;74;33156;-71
2021/10/30 07:02:16;;;;;;;42.30;39.03;;;;;;;12.53;100.00;99418.25;1940848;74;33503;-71
2021/10/30 07:07:41;;;;;;;41.30;38.03;;;;;;;12.57;100.00;99416.43;1940787;74;33106;-72
2021/10/30 07:13:06;;;;;;;40.80;37.80;;;;;;;12.67;100.00;99421.05;1940785;74;33132;-71
2021/10/30 07:18:30;;;;;;;39.93;36.83;;;;;;;12.70;100.00;99431.55;1940797;74;33081;-73
2021/10/30 07:23:58;;;;;;;40.60;37.40;;;;;;;12.75;100.00;99408.22;1941083;74;33184;-72
2021/10/30 07:29:21;;;;;;;41.33;38.33;;;;;;;12.78;100.00;99419.55;1940762;74;33055;-71
2021/10/30 07:34:45;;;;;;;40.33;37.43;;;;;;;12.81;100.00;99417.22;1940722;74;33131;-69
2021/10/30 07:40:12;;;;;;;42.40;39.40;;;;;;;12.83;100.00;99417.14;1940899;74;33553;-71
2021/10/30 07:45:38;;;;;;;43.57;40.37;;;;;;;12.77;100.00;99434.62;1940957;74;33437;-69
2021/10/30 07:51:03;;;;;;;45.97;42.87;;;;;;;12.65;100.00;99430.90;1940750;74;33092;-69
2021/10/30 07:56:28;;;;;;;46.83;43.73;;;;;;;12.57;100.00;99444.28;1940995;74;33501;-71
2021/10/30 08:01:53;;;;;;;48.00;44.90;;;;;;;12.39;100.00;99452.44;1940774;74;33064;-72
2021/10/30 08:07:17;;;;;;;49.87;46.57;;;;;;;12.30;100.00;99470.55;1940760;74;33080;-72
2021/10/30 08:12:44;;;;;;;48.37;45.33;;;;;;;12.20;100.00;99466.14;1940805;74;33097;-72
2021/10/30 08:18:08;;;;;;;49.63;46.70;;;;;;;12.17;100.00;99479.33;1941011;74;33500;-70
2021/10/30 08:23:32;;;;;;;49.70;46.70;;;;;;;12.21;100.00;99505.94;1940776;74;32997;-72
2021/10/30 08:28:57;;;;;;;46.07;42.87;;;;;;;12.18;100.00;99524.69;1940749;74;33071;-71
2021/10/30 08:34:21;;;;;;;46.43;43.23;;;;;;;12.20;100.00;99522.38;1940748;74;33171;-72
2021/10/30 08:39:45;;;;;;;49.60;46.30;;;;;;;12.16;100.00;99520.83;1941015;74;33548;-73
2021/10/30 08:45:11;;;;;;;43.53;40.57;;;;;;;12.15;100.00;99525.36;1940840;74;33080;-71
2021/10/30 08:50:35;;;;;;;45.07;42.07;;;;;;;12.19;100.00;99512.42;1940931;74;33461;-69
2021/10/30 08:56:04;;;;;;;50.30;47.00;;;;;;;12.15;100.00;99515.61;1940756;74;33072;-72
2021/10/30 09:01:28;;;;;;;47.77;44.37;;;;;;;12.12;100.00;99518.47;1940776;74;33132;-72
2021/10/30 09:07:02;;;;;;;43.00;40.07;;;;;;;12.26;100.00;99546.14;1941021;74;33591;-71
2021/10/30 09:12:27;;;;;;;46.90;43.90;;;;;;;12.31;100.00;99548.77;1940888;74;33613;-71
2021/10/30 09:17:51;;;;;;;45.60;42.60;;;;;;;12.31;100.00;99553.76;1940851;74;33491;-74
2021/10/30 09:23:37;;;;;;;47.07;44.03;;;;;;;12.35;100.00;99561.45;2009672;71;32928;-67
2021/10/30 09:29:09;;;;;;;45.33;42.43;;;;;;;12.34;100.00;99562.02;1940852;74;33101;-68
2021/10/30 09:34:33;;;;;;;43.17;40.17;;;;;;;12.50;100.00;99567.32;1940717;74;33516;-69
2021/10/30 09:40:20;;;;;;;44.03;40.87;;;;;;;12.50;100.00;99570.67;1940744;74;33127;-73
2021/10/30 09:45:50;;;;;;;44.60;41.30;;;;;;;12.53;100.00;99573.65;1940921;74;33558;-68
2021/10/30 09:51:38;;;;;;;57.50;53.90;;;;;;;12.72;100.00;99581.06;2009525;71;32984;-72
2021/10/30 09:57:12;;;;;;;59.50;56.00;;;;;;;12.90;100.00;99581.85;1940737;74;33084;-73
2021/10/30 10:03:01;;;;;;;59.00;55.20;;;;;;;12.91;100.00;99584.06;2009704;71;33255;-68
2021/10/30 10:08:28;;;;;;;50.80;47.37;;;;;;;12.86;100.00;99584.23;1940936;74;33469;-69
2021/10/30 10:13:54;;;;;;;56.60;53.20;;;;;;;12.91;100.00;99578.49;1940953;74;33690;-71
2021/10/30 10:19:20;;;;;;;53.70;50.40;;;;;;;12.90;100.00;99579.06;1940966;74;33460;-68
2021/10/30 10:24:45;;;;;;;47.90;44.77;;;;;;;12.95;100.00;99585.04;1940927;74;32971;-68
2021/10/30 10:30:11;;;;;;;47.27;44.10;;;;;;;13.12;100.00;99594.20;1940960;74;33301;-68
2021/10/30 10:35:36;;;;;;;44.97;41.97;;;;;;;13.19;100.00;99611.80;1940919;74;33533;-73
2021/10/30 10:41:00;;;;;;;44.77;41.60;;;;;;;13.26;100.00;99616.88;1941031;74;33071;-68
2021/10/30 10:46:53;;;;;;;43.57;40.70;;;;;;;13.48;100.00;99620.80;1940716;74;33163;-73
2021/10/30 10:52:22;;;;;;;47.07;44.07;;;;;;;13.44;100.00;99619.26;1940737;74;33103;-73
2021/10/30 10:58:13;;;;;;;43.67;40.67;;;;;;;13.23;100.00;99628.11;1940751;74;33107;-73
2021/10/30 11:03:57;;;;;;;43.57;40.83;;;;;;;13.33;100.00;99629.73;1940779;74;33167;-69
2021/10/30 11:09:31;;;;;;;42.87;40.00;;;;;;;13.39;100.00;99631.20;1940745;74;33155;-69
2021/10/30 11:15:21;;;;;;;41.70;39.10;;;;;;;13.41;100.00;99583.67;1940780;74;32980;-68
2021/10/30 11:20:55;;;;;;;41.57;38.97;;;;;;;13.55;100.00;99623.91;1940980;74;33075;-70
2021/10/30 11:26:20;;;;;;;38.90;36.50;;;;;;;13.62;100.00;99640.36;1940958;74;33553;-70
2021/10/30 11:31:46;;;;;;;46.93;44.43;;;;;;;13.59;100.00;99645.22;1940819;74;32986;-73
2021/10/30 11:37:11;;;;;;;47.07;44.67;;;;;;;13.77;100.00;99656.31;1940946;74;33624;-73
2021/10/30 11:42:41;;;;;;;46.03;43.63;;;;;;;13.83;100.00;99655.77;1940822;74;33509;-73
2021/10/30 11:48:07;;;;;;;44.30;42.00;;;;;;;13.94;100.00;99659.84;1940924;74;33045;-73
2021/10/30 11:53:33;;;;;;;45.40;43.00;;;;;;;14.01;100.00;99647.55;1941008;74;33084;-68
2021/10/30 11:59:01;;;;;;;42.00;39.90;;;;;;;13.96;100.00;99656.69;1940786;74;33166;-69
2021/10/30 12:04:33;;;;;;;36.00;34.00;;;;;;;14.23;100.00;99661.80;1940941;74;33563;-73
2021/10/30 12:09:58;;;;;;;36.17;34.37;;;;;;;14.42;100.00;99658.56;1940876;74;32979;-73
2021/10/30 12:15:23;;;;;;;39.03;37.03;;;;;;;14.07;100.00;99669.95;1941021;74;32977;-74
2021/10/30 12:20:47;;;;;;;36.77;34.87;;;;;;;13.81;100.00;99665.64;1940891;74;33494;-69
2021/10/30 12:26:12;;;;;;;37.07;35.33;;;;;;;13.75;100.00;99666.98;1941132;74;33492;-69
2021/10/30 12:31:36;;;;;;;38.30;36.40;;;;;;;13.79;100.00;99662.36;1940906;74;33555;-68
2021/10/30 12:37:12;;;;;;;38.67;36.77;;;;;;;13.72;100.00;99667.08;1940968;74;33451;-67
2021/10/30 12:42:38;;;;;;;38.57;36.57;;;;;;;13.83;100.00;99668.33;1940961;74;33423;-73
2021/10/30 12:48:12;;;;;;;39.93;38.00;;;;;;;14.06;100.00;99661.90;1940739;74;33077;-73
2021/10/30 12:53:38;;;;;;;34.93;33.17;;;;;;;14.15;100.00;99652.90;1940954;74;33506;-70
2021/10/30 12:59:03;;;;;;;40.48;38.40;;;;;;;14.31;100.00;99649.74;1924921;74;28101;-75
2021/10/30 13:04:34;;;;;;;39.30;37.30;;;;;;;14.52;100.00;99648.38;1940871;74;33539;-70
2021/10/30 13:10:01;;;;;;;33.07;31.37;;;;;;;14.40;100.00;99639.94;1940738;74;32955;-70
2021/10/30 13:15:28;;;;;;;32.53;30.93;;;;;;;14.31;100.00;99638.57;1940945;74;33198;-70
2021/10/30 13:20:52;;;;;;;30.23;28.77;;;;;;;14.49;100.00;99633.13;1940728;74;33026;-70
2021/10/30 13:26:17;;;;;;;29.83;28.33;;;;;;;14.59;100.00;99647.25;1940762;74;33068;-72
2021/10/30 13:31:42;;;;;;;32.53;30.83;;;;;;;14.78;100.00;99646.19;1940920;74;33669;-73
2021/10/30 13:37:07;;;;;;;31.83;30.23;;;;;;;14.75;100.00;99663.66;1940838;74;32980;-72
2021/10/30 13:42:32;;;;;;;29.90;28.47;;;;;;;14.55;100.00;99671.44;1940971;74;33043;-72
2021/10/30 13:48:15;;;;;;;28.67;27.27;;;;;;;14.73;100.00;99673.53;2009689;71;32773;-69
2021/10/30 13:53:39;;;;;;;27.63;26.23;;;;;;;14.86;100.00;99680.82;1940859;74;33092;-73
2021/10/30 13:59:04;;;;;;;27.97;26.63;;;;;;;14.91;100.00;99682.02;1940797;74;33109;-74
2021/10/30 14:04:29;;;;;;;24.37;23.27;;;;;;;14.95;100.00;99685.18;1940786;74;32970;-74
2021/10/30 14:09:54;;;;;;;26.73;25.53;;;;;;;15.09;100.00;99684.07;1940901;74;33182;-70
2021/10/30 14:15:18;;;;;;;25.83;24.63;;;;;;;14.71;100.00;99695.43;1941000;74;33000;-68
2021/10/30 14:20:42;;;;;;;25.63;24.33;;;;;;;14.39;100.00;99711.75;1940821;74;32988;-70
2021/10/30 14:26:07;;;;;;;26.30;24.90;;;;;;;14.54;100.00;99709.77;1940847;74;33149;-74
2021/10/30 14:31:32;;;;;;;27.53;26.07;;;;;;;14.58;100.00;99722.48;1940800;74;33007;-71
2021/10/30 14:36:57;;;;;;;27.57;26.27;;;;;;;14.72;100.00;99721.63;1940933;74;33482;-74
2021/10/30 14:42:21;;;;;;;29.60;28.10;;;;;;;14.94;100.00;99733.87;1940899;74;33550;-70
2021/10/30 14:47:45;;;;;;;28.63;27.17;;;;;;;14.59;100.00;99745.88;1940967;74;33562;-70
2021/10/30 14:53:10;;;;;;;27.93;26.63;;;;;;;14.43;100.00;99761.59;1940899;74;33059;-73
2021/10/30 14:58:34;;;;;;;29.90;28.50;;;;;;;14.28;100.00;99767.74;1940875;74;33057;-70
2021/10/30 15:04:00;;;;;;;29.97;28.40;;;;;;;14.43;100.00;99769.16;1940828;74;33009;-72
2021/10/30 15:09:24;;;;;;;30.73;29.27;;;;;;;14.31;100.00;99778.23;1940767;74;33019;-70
2021/10/30 15:14:49;;;;;;;30.30;28.90;;;;;;;14.32;100.00;99786.86;1940814;74;33147;-72
2021/10/30 15:20:14;;;;;;;26.40;25.10;;;;;;;14.34;100.00;99792.92;1940993;74;33531;-69
2021/10/30 15:25:39;;;;;;;27.43;26.13;;;;;;;14.20;100.00;99804.91;1940787;74;33045;-72
2021/10/30 15:31:06;;;;;;;27.90;26.50;;;;;;;14.24;100.00;99805.88;1940785;74;32986;-69
2021/10/30 15:36:31;;;;;;;28.03;26.63;;;;;;;14.14;100.00;99810.42;1940973;74;33524;-70
2021/10/30 15:41:56;;;;;;;28.87;27.47;;;;;;;14.07;100.00;99815.72;1940911;74;32983;-71
2021/10/30 15:47:20;;;;;;;27.57;26.27;;;;;;;14.10;100.00;99826.22;1940901;74;33472;-70
2021/10/30 15:52:45;;;;;;;28.33;27.03;;;;;;;14.20;100.00;99826.43;1941009;74;33106;-72
2021/10/30 15:58:29;;;;;;;26.93;25.63;;;;;;;14.23;100.00;99836.92;2000201;71;33307;-71
2021/10/30 16:03:53;;;;;;;28.83;27.43;;;;;;;14.16;100.00;99841.64;1940736;74;32963;-72
2021/10/30 16:09:17;;;;;;;33.10;31.20;;;;;;;14.01;100.00;99848.58;1940758;74;32969;-71
2021/10/30 16:14:41;;;;;;;33.10;31.50;;;;;;;13.78;100.00;99855.51;1940793;74;33161;-72
2021/10/30 16:20:08;;;;;;;35.90;33.93;;;;;;;13.66;100.00;99863.16;1940863;74;32965;-71
2021/10/30 16:25:34;;;;;;;40.43;38.33;;;;;;;13.62;100.00;99867.77;1940797;74;32989;-68
2021/10/30 16:30:58;;;;;;;37.13;35.33;;;;;;;13.47;100.00;99882.23;1940875;74;33136;-72
2021/10/30 16:36:24;;;;;;;37.57;35.57;;;;;;;13.39;100.00;99887.20;1941004;74;33476;-67
2021/10/30 16:41:49;;;;;;;38.30;36.30;;;;;;;13.35;100.00;99899.36;1940943;74;33455;-68
2021/10/30 16:47:14;;;;;;;35.80;34.00;;;;;;;13.29;100.00;99911.81;1941015;74;33047;-72
2021/10/30 16:52:39;;;;;;;42.83;40.50;;;;;;;13.14;100.00;99914.48;1940889;74;33752;-72
2021/10/30 16:58:04;;;;;;;40.67;38.43;;;;;;;13.15;100.00;99937.87;1940857;74;33050;-73
2021/10/30 17:03:36;;;;;;;39.97;37.80;;;;;;;13.12;100.00;99948.86;1941131;74;33505;-68
2021/10/30 17:09:00;;;;;;;44.23;41.83;;;;;;;12.97;100.00;99972.95;1940859;74;33631;-72
2021/10/30 17:14:25;;;;;;;43.90;41.40;;;;;;;12.70;100.00;99978.19;1940828;74;32988;-73
2021/10/30 17:19:49;;;;;;;45.17;42.57;;;;;;;12.48;100.00;99997.16;1940775;74;32990;-72
2021/10/30 17:25:14;;;;;;;45.27;42.43;;;;;;;12.35;100.00;100012.55;1940798;74;32996;-71
2021/10/30 17:30:39;;;;;;;45.97;43.37;;;;;;;12.25;100.00;100026.14;1940793;74;33076;-68
2021/10/30 17:36:04;;;;;;;49.10;46.27;;;;;;;11.79;100.00;100032.81;1940779;74;33085;-67
2021/10/30 17:41:29;;;;;;;48.27;45.33;;;;;;;11.44;100.00;100051.64;1940935;74;33081;-68
2021/10/30 17:46:54;;;;;;;48.80;45.80;;;;;;;11.25;100.00;100051.74;1940946;74;33534;-67
2021/10/30 17:52:19;;;;;;;48.73;45.40;;;;;;;11.24;100.00;100058.45;1940764;74;33078;-72
2021/10/30 17:57:43;;;;;;;49.07;45.87;;;;;;;11.14;100.00;100068.94;1940814;74;33076;-73
2021/10/30 18:03:08;;;;;;;49.30;46.10;;;;;;;10.92;100.00;100072.41;1941036;74;33045;-71
2021/10/30 18:08:33;;;;;;;48.97;45.77;;;;;;;10.90;100.00;100098.31;1940850;74;32985;-68
2021/10/30 18:13:57;;;;;;;64.20;58.93;;;;;;;10.91;100.00;100106.31;1940830;74;33030;-71
2021/10/30 18:19:22;;;;;;;60.33;55.23;;;;;;;10.69;100.00;100117.85;1940799;74;33063;-68
2021/10/30 18:24:53;;;;;;;50.70;47.00;;;;;;;10.66;100.00;100130.38;1940776;74;33142;-72
2021/10/30 18:30:18;;;;;;;46.57;43.47;;;;;;;10.86;100.00;100144.50;1940862;74;33085;-68
2021/10/30 18:35:43;;;;;;;49.07;46.07;;;;;;;11.08;100.00;100149.39;1940765;74;33141;-68
2021/10/30 18:41:08;;;;;;;52.97;49.57;;;;;;;11.03;100.00;100159.20;1940795;74;33077;-69
2021/10/30 18:46:38;;;;;;;52.43;49.03;;;;;;;10.22;100.00;100161.91;1940981;74;33058;-69
2021/10/30 18:52:04;;;;;;;50.90;47.50;;;;;;;10.27;100.00;100179.87;1941010;74;33442;-69
2021/10/30 18:57:28;;;;;;;55.87;51.70;;;;;;;10.04;100.00;100196.25;1940769;74;33052;-71
2021/10/30 19:02:53;;;;;;;53.37;49.57;;;;;;;10.04;100.00;100203.19;1940862;74;33080;-68
2021/10/30 19:08:18;;;;;;;52.27;48.47;;;;;;;9.96;100.00;100216.33;1907240;72;40190;-73
2021/10/30 19:13:42;;;;;;;52.93;49.03;;;;;;;9.94;100.00;100215.79;1934233;74;39538;-70
2021/10/30 19:19:08;;;;;;;53.23;49.43;;;;;;;9.94;100.00;100224.11;1913750;74;39518;-72
2021/10/30 19:24:32;;;;;;;49.80;46.10;;;;;;;10.04;100.00;100218.45;1764878;79;86175;-70
2021/10/30 19:29:56;;;;;;;55.63;51.80;;;;;;;10.00;100.00;100224.33;1878456;74;39417;-71
2021/10/30 19:35:23;;;;;;;58.43;54.13;;;;;;;9.70;100.00;100237.72;1901758;73;86176;-70
2021/10/30 19:40:55;;;;;;;60.30;55.60;;;;;;;9.72;100.00;100240.45;1913374;74;39683;-70
2021/10/30 19:46:20;;;;;;;61.70;56.80;;;;;;;9.62;100.00;100247.52;1832754;73;40400;-70
2021/10/30 19:51:44;;;;;;;68.60;62.90;;;;;;;9.66;100.00;100249.97;1870284;75;86672;-68
2021/10/30 19:57:09;;;;;;;67.23;61.70;;;;;;;9.81;100.00;100248.95;1825078;78;86556;-67
2021/10/30 20:02:33;;;;;;;67.57;62.17;;;;;;;9.59;100.00;100258.62;1914833;74;39880;-67
2021/10/30 20:07:58;;;;;;;65.87;60.57;;;;;;;9.62;100.00;100255.01;1890943;74;86459;-71
2021/10/30 20:13:22;;;;;;;60.60;55.67;;;;;;;9.44;100.00;100262.11;1916679;74;39463;-67
2021/10/30 20:18:47;;;;;;;61.40;56.20;;;;;;;9.37;100.00;100267.18;1901777;73;86053;-68
2021/10/30 20:24:11;;;;;;;58.67;54.00;;;;;;;9.30;100.00;100273.05;1901919;74;86574;-69
2021/10/30 20:29:55;;;;;;;57.57;52.90;;;;;;;9.49;100.00;100275.93;1917045;72;86663;-69
2021/10/30 20:35:20;;;;;;;56.67;52.03;;;;;;;9.25;100.00;100279.18;1917122;74;39542;-70
2021/10/30 20:40:54;;;;;;;57.27;52.87;;;;;;;9.31;100.00;100284.96;1872225;75;86074;-68
2021/10/30 20:46:16;;;;;;;57.70;53.13;;;;;;;9.21;100.00;100289.19;1918712;74;39875;-69
2021/10/30 20:51:41;;;;;;;54.17;50.07;;;;;;;9.56;100.00;100297.20;1913362;74;39548;-69
2021/10/30 20:57:06;;;;;;;55.67;51.37;;;;;;;9.35;100.00;100305.44;1782714;79;86422;-68
2021/10/30 21:02:29;;;;;;;55.03;50.87;;;;;;;9.14;100.00;100312.53;1915454;74;39647;-70
2021/10/30 21:07:54;;;;;;;55.53;51.27;;;;;;;8.91;100.00;100307.70;1903966;74;85710;-68
2021/10/30 21:13:18;;;;;;;54.63;50.40;;;;;;;8.78;100.00;100312.50;1918166;74;39522;-68
2021/10/30 21:18:42;;;;;;;54.70;50.40;;;;;;;8.79;100.00;100323.85;1913093;74;39779;-72
2021/10/30 21:24:06;;;;;;;55.27;50.97;;;;;;;8.93;100.00;100320.72;1782755;79;86264;-69
2021/10/30 21:29:37;;;;;;;54.73;50.43;;;;;;;8.93;100.00;100326.82;1913949;74;39422;-71
2021/10/30 21:35:02;;;;;;;51.40;47.27;;;;;;;8.89;100.00;100329.34;1825217;76;86468;-71
2021/10/30 21:40:26;;;;;;;51.27;47.47;;;;;;;9.19;100.00;100324.70;1879376;74;39708;-70
2021/10/30 21:45:51;;;;;;;50.77;46.80;;;;;;;9.31;100.00;100326.53;1901761;75;86910;-68
2021/10/30 21:51:16;;;;;;;52.03;47.83;;;;;;;9.35;100.00;100327.61;1918600;74;39795;-71
2021/10/30 21:56:59;;;;;;;55.33;51.10;;;;;;;9.40;100.00;100327.57;1933453;73;85804;-70
2021/10/30 22:02:24;;;;;;;58.37;53.80;;;;;;;9.09;100.00;100321.44;1880525;74;39546;-69
2021/10/30 22:07:49;;;;;;;56.27;52.03;;;;;;;8.90;100.00;100318.50;1901796;75;86280;-71
2021/10/30 22:13:15;;;;;;;54.50;50.00;;;;;;;8.83;100.00;100330.47;1918635;74;39645;-72
2021/10/30 22:18:42;;;;;;;52.67;48.97;;;;;;;8.66;100.00;100332.78;1885653;74;39524;-71
2021/10/30 22:24:06;;;;;;;71.43;64.27;;;;;;;8.58;100.00;100341.14;1796606;78;87008;-71
2021/10/30 22:29:32;;;;;;;60.67;55.67;;;;;;;8.40;100.00;100343.16;1915186;74;39740;-70
2021/10/30 22:34:58;;;;;;;54.90;50.77;;;;;;;8.33;100.00;100347.34;1891416;74;86677;-71
2021/10/30 22:40:42;;;;;;;50.47;46.57;;;;;;;8.27;100.00;100347.88;1977859;71;39724;-70
2021/10/30 22:46:07;;;;;;;54.33;49.83;;;;;;;8.38;100.00;100348.71;1902201;74;86590;-69
2021/10/30 22:51:34;;;;;;;55.17;50.77;;;;;;;8.21;100.00;100341.52;1885045;74;39470;-71
2021/10/30 22:56:58;;;;;;;50.93;46.90;;;;;;;8.13;100.00;100355.94;1903293;74;86491;-70
2021/10/30 23:02:23;;;;;;;49.07;45.57;;;;;;;8.03;100.00;100355.98;1870673;74;40177;-70
2021/10/30 23:14:08;;;;;;;49.23;45.73;;;;;;;8.01;100.00;100345.74;2009252;69;39583;-71
2021/10/30 23:16:38;;;;;;;48.42;44.65;;;;;;;8.00;100.00;100344.08;1923201;73;936701;-70
2021/10/30 23:19:10;;;;;;;48.50;44.80;;;;;;;8.00;100.00;100335.78;1895175;74;936935;-70
2021/10/30 23:24:35;;;;;;;48.47;44.77;;;;;;;7.99;100.00;100320.88;1870556;74;39513;-71
2021/10/30 23:30:00;;;;;;;49.03;45.20;;;;;;;7.84;100.00;100316.75;1904549;74;86186;-71
2021/10/30 23:35:25;;;;;;;49.70;45.90;;;;;;;7.73;100.00;100318.17;1916316;74;39610;-71
2021/10/30 23:40:49;;;;;;;50.60;46.93;;;;;;;7.53;100.00;100314.63;1901690;75;86725;-71
2021/10/30 23:46:15;;;;;;;49.67;45.90;;;;;;;7.67;100.00;100314.30;1892833;74;39752;-70
2021/10/30 23:51:39;;;;;;;47.60;44.00;;;;;;;7.65;100.00;100309.62;1913619;74;39600;-71
2021/10/30 23:57:03;;;;;;;51.07;47.23;;;;;;;7.78;100.00;100300.75;1951484;71;85636;-71
